createdAt,value
2022-08-19T00:01:28.637Z,101019.38
2022-08-19T00:04:53.854Z,101017.09
2022-08-19T00:08:16.073Z,101017.50
2022-08-19T00:11:38.814Z,101003.19
2022-08-19T00:15:02.399Z,101012.72
2022-08-19T00:18:24.198Z,101012.97
2022-08-19T00:21:46.532Z,101006.13
2022-08-19T00:25:09.344Z,101009.63
2022-08-19T00:28:32.481Z,101004.69
2022-08-19T00:32:00.848Z,101003.84
2022-08-19T00:35:22.769Z,101010.16
2022-08-19T00:38:45.027Z,101005.34
2022-08-19T00:42:07.728Z,101011.53
2022-08-19T00:45:32.701Z,101009.84
2022-08-19T00:49:00.660Z,101006.47
2022-08-19T00:52:29.999Z,100989.19
2022-08-19T00:55:55.083Z,101014.53
2022-08-19T00:59:56.122Z,101022.41
2022-08-19T01:03:01.472Z,101020.00
2022-08-19T01:06:24.933Z,100989.75
2022-08-19T01:09:46.964Z,101012.53
2022-08-19T01:13:09.177Z,101019.53
2022-08-19T01:16:35.284Z,101015.31
2022-08-19T01:19:57.368Z,101012.09
2022-08-19T01:23:20.845Z,101004.38
2022-08-19T01:26:45.502Z,101013.19
2022-08-19T01:30:10.541Z,101019.63
2022-08-19T01:33:33.205Z,101010.72
2022-08-19T01:36:55.260Z,101019.78
2022-08-19T01:40:20.477Z,101018.22
2022-08-19T01:44:17.342Z,101019.34
2022-08-19T01:47:24.668Z,101019.09
2022-08-19T01:50:46.661Z,101017.13
2022-08-19T01:54:08.855Z,101013.78
2022-08-19T01:57:32.624Z,101017.84
2022-08-19T02:00:54.814Z,101017.59
2022-08-19T02:04:17.063Z,101018.31
2022-08-19T02:07:41.216Z,101006.22
2022-08-19T02:11:03.321Z,101012.13
2022-08-19T02:14:26.730Z,101019.75
2022-08-19T02:17:49.714Z,101003.84
2022-08-19T02:21:13.256Z,101020.00
2022-08-19T02:24:35.591Z,101019.00
2022-08-19T02:27:57.492Z,101021.94
2022-08-19T02:31:23.313Z,101026.41
2022-08-19T02:34:47.636Z,101026.91
2022-08-19T02:38:32.491Z,101020.03
2022-08-19T02:41:54.653Z,101027.50
2022-08-19T02:45:16.879Z,101033.91
2022-08-19T02:48:39.977Z,101034.63
2022-08-19T02:52:02.098Z,101043.44
2022-08-19T02:55:24.287Z,101038.13
2022-08-19T02:58:46.219Z,101042.63
2022-08-19T03:02:09.027Z,101031.50
2022-08-19T03:05:48.123Z,101052.16
2022-08-19T03:09:14.761Z,101032.50
2022-08-19T03:12:39.431Z,101045.53
2022-08-19T03:16:01.554Z,101054.09
2022-08-19T03:19:23.776Z,101061.69
2022-08-19T03:22:47.028Z,101058.06
2022-08-19T03:26:16.632Z,101062.53
2022-08-19T03:29:43.343Z,101052.16
2022-08-19T03:33:06.191Z,101061.19
2022-08-19T03:36:30.488Z,101051.91
2022-08-19T03:39:53.809Z,101074.09
2022-08-19T03:43:19.361Z,101062.88
2022-08-19T03:46:42.324Z,101068.75
2022-08-19T03:50:07.352Z,101076.22
2022-08-19T03:53:30.391Z,101087.22
2022-08-19T03:56:55.314Z,101076.31
2022-08-19T04:00:19.079Z,101091.03
2022-08-19T04:03:41.495Z,101099.38
2022-08-19T04:07:03.477Z,101107.09
2022-08-19T04:10:25.796Z,101100.94
2022-08-19T04:13:49.722Z,101099.59
2022-08-19T04:17:12.259Z,101107.31
2022-08-19T04:20:34.336Z,101104.13
2022-08-19T04:23:56.906Z,101114.09
2022-08-19T04:27:19.023Z,101107.16
2022-08-19T04:30:44.091Z,101112.59
2022-08-19T04:34:08.824Z,101109.56
2022-08-19T04:37:35.473Z,101118.97
2022-08-19T04:41:15.036Z,101110.72
2022-08-19T04:44:39.864Z,101111.59
2022-08-19T04:48:26.473Z,101104.75
2022-08-19T04:51:49.908Z,101116.25
2022-08-19T04:55:12.612Z,101110.09
2022-08-19T04:58:34.569Z,101116.31
2022-08-19T05:01:56.815Z,101116.47
2022-08-19T05:05:21.012Z,101108.34
2022-08-19T05:08:44.402Z,101111.16
2022-08-19T05:12:07.323Z,101111.56
2022-08-19T05:15:29.489Z,101117.13
2022-08-19T05:19:09.375Z,101117.44
2022-08-19T05:22:36.728Z,101119.19
2022-08-19T05:25:58.790Z,101120.25
2022-08-19T05:29:23.247Z,101124.13
2022-08-19T05:32:45.429Z,101105.78
2022-08-19T05:36:08.432Z,101124.81
2022-08-19T05:39:34.596Z,101129.59
2022-08-19T05:42:56.674Z,101134.81
2022-08-19T05:46:27.915Z,101139.94
2022-08-19T05:49:51.990Z,101131.38
2022-08-19T05:53:13.889Z,101131.34
2022-08-19T05:56:39.147Z,101132.94
2022-08-19T06:00:02.945Z,101131.50
2022-08-19T06:03:25.300Z,101130.16
2022-08-19T06:06:47.935Z,101134.06
2022-08-19T06:10:13.041Z,101115.03
2022-08-19T06:13:37.052Z,101131.75
2022-08-19T06:17:06.656Z,101114.06
2022-08-19T06:20:52.584Z,101112.28
2022-08-19T06:24:14.056Z,101119.03
2022-08-19T06:27:36.128Z,101121.38
2022-08-19T06:30:59.744Z,101126.25
2022-08-19T06:34:22.229Z,101133.19
2022-08-19T06:37:45.315Z,101143.09
2022-08-19T06:41:08.229Z,101138.75
2022-08-19T06:44:40.172Z,101133.94
2022-08-19T06:48:08.105Z,101140.66
2022-08-19T06:54:56.451Z,101132.97
2022-08-19T06:58:18.732Z,101132.78
2022-08-19T07:01:43.752Z,101143.03
2022-08-19T07:05:08.516Z,101148.03
2022-08-19T07:08:32.931Z,101141.44
2022-08-19T07:11:55.996Z,101150.53
2022-08-19T07:15:18.902Z,101148.66
2022-08-19T07:18:41.600Z,101155.00
2022-08-19T07:22:09.851Z,101158.47
2022-08-19T07:25:35.945Z,101156.56
2022-08-19T07:28:59.956Z,101150.22
2022-08-19T07:32:21.865Z,101150.03
2022-08-19T07:35:44.785Z,101147.09
2022-08-19T07:39:14.463Z,101149.66
2022-08-19T07:42:36.483Z,101155.84
2022-08-19T07:45:58.603Z,101154.66
2022-08-19T07:49:22.828Z,101160.16
2022-08-19T07:52:49.113Z,101160.56
2022-08-19T07:56:13.924Z,101163.84
2022-08-19T07:59:36.023Z,101160.91
2022-08-19T08:02:58.241Z,101158.31
2022-08-19T08:06:38.077Z,101167.00
2022-08-19T08:10:03.232Z,101158.00
2022-08-19T08:13:27.567Z,101155.94
2022-08-19T08:16:51.298Z,101140.69
2022-08-19T08:20:14.938Z,101161.91
2022-08-19T08:23:37.397Z,101171.00
2022-08-19T08:27:03.296Z,101172.69
2022-08-19T08:30:36.965Z,101168.69
2022-08-19T08:33:58.765Z,101173.72
2022-08-19T08:37:20.645Z,101179.09
2022-08-19T08:40:47.478Z,101177.91
2022-08-19T08:44:17.284Z,101172.50
2022-08-19T08:47:47.641Z,101159.38
2022-08-19T08:51:14.763Z,101176.44
2022-08-19T08:54:49.130Z,101176.72
2022-08-19T08:58:23.719Z,101174.75
2022-08-19T09:01:46.199Z,101169.34
2022-08-19T09:05:16.467Z,101172.13
2022-08-19T09:08:45.542Z,101180.34
2022-08-19T09:12:27.755Z,101180.91
2022-08-19T09:15:55.196Z,101167.78
2022-08-19T09:19:22.478Z,101178.91
2022-08-19T09:22:46.466Z,101178.53
2022-08-19T09:26:11.260Z,101180.34
2022-08-19T09:29:34.172Z,101188.72
2022-08-19T09:32:57.391Z,101171.94
2022-08-19T09:36:34.849Z,101192.31
2022-08-19T09:39:59.274Z,101188.72
2022-08-19T09:43:33.935Z,101184.66
2022-08-19T09:47:04.973Z,101190.72
2022-08-19T09:50:27.491Z,101180.69
2022-08-19T09:53:52.865Z,101172.31
2022-08-19T09:57:19.186Z,101198.81
2022-08-19T10:00:41.333Z,101195.34
2022-08-19T10:04:14.598Z,101200.88
2022-08-19T10:07:42.537Z,101201.03
2022-08-19T10:11:28.210Z,101195.34
2022-08-19T10:14:52.217Z,101202.69
2022-08-19T10:18:14.735Z,101203.03
2022-08-19T10:21:37.561Z,101205.00
2022-08-19T10:25:02.641Z,101194.47
2022-08-19T10:28:25.203Z,101197.31
2022-08-19T10:32:02.231Z,101165.53
2022-08-19T10:35:27.751Z,101184.97
2022-08-19T10:38:56.662Z,101183.69
2022-08-19T10:42:19.733Z,101161.78
2022-08-19T10:45:52.817Z,101175.91
2022-08-19T10:49:16.888Z,101177.44
2022-08-19T10:52:49.530Z,101185.53
2022-08-19T10:56:29.928Z,101178.47
2022-08-19T10:59:52.322Z,101171.28
2022-08-19T11:03:14.523Z,101180.22
2022-08-19T11:06:39.559Z,101173.47
2022-08-19T11:10:01.593Z,101179.66
2022-08-19T11:13:24.356Z,101173.22
2022-08-19T11:16:46.859Z,101172.38
2022-08-19T11:20:10.220Z,101171.06
2022-08-19T11:23:33.539Z,101168.16
2022-08-19T11:27:00.206Z,101161.03
2022-08-19T11:30:22.147Z,101160.66
2022-08-19T11:33:47.663Z,101170.63
2022-08-19T11:37:10.092Z,101164.97
2022-08-19T11:40:34.455Z,101165.06
2022-08-19T11:43:56.997Z,101161.31
2022-08-19T11:47:19.251Z,101149.66
2022-08-19T11:50:44.644Z,101153.47
2022-08-19T11:54:08.092Z,101150.81
2022-08-19T11:57:31.691Z,101148.50
2022-08-19T12:00:54.487Z,101130.53
2022-08-19T12:04:16.575Z,101144.75
2022-08-19T12:07:40.868Z,101143.53
2022-08-19T12:11:03.249Z,101150.44
2022-08-19T12:14:29.046Z,101143.47
2022-08-19T12:17:50.954Z,101151.75
2022-08-19T12:21:14.841Z,101137.69
2022-08-19T12:24:36.949Z,101152.31
2022-08-19T12:27:59.372Z,101145.47
2022-08-19T12:31:23.047Z,101130.72
2022-08-19T12:34:45.799Z,101144.25
2022-08-19T12:38:07.959Z,101137.59
2022-08-19T12:41:29.971Z,101128.19
2022-08-19T12:44:52.546Z,101131.69
2022-08-19T12:48:33.297Z,101128.81
2022-08-19T12:51:55.961Z,101120.47
2022-08-19T12:55:19.738Z,101122.78
2022-08-19T12:58:48.905Z,101124.22
2022-08-19T13:02:13.117Z,101112.50
2022-08-19T13:05:36.794Z,101117.72
2022-08-19T13:08:59.730Z,101095.66
2022-08-19T13:12:24.890Z,101117.38
2022-08-19T13:15:48.683Z,101113.66
2022-08-19T13:19:13.210Z,101109.28
2022-08-19T13:22:37.801Z,101116.75
2022-08-19T13:26:00.889Z,101120.94
2022-08-19T13:29:40.640Z,101112.78
2022-08-19T13:33:16.114Z,101117.28
2022-08-19T13:36:40.144Z,101118.38
2022-08-19T13:40:04.376Z,101115.72
2022-08-19T13:43:28.958Z,101108.44
2022-08-19T13:46:54.263Z,101115.19
2022-08-19T13:50:20.355Z,101106.03
2022-08-19T13:53:47.778Z,101111.19
2022-08-19T13:57:11.798Z,101110.13
2022-08-19T14:00:37.815Z,101110.31
2022-08-19T14:04:00.018Z,101115.00
2022-08-19T14:07:24.668Z,101108.72
2022-08-19T14:10:47.333Z,101110.38
2022-08-19T14:14:15.833Z,101105.19
2022-08-19T14:17:40.444Z,101105.19
2022-08-19T14:21:04.126Z,101107.25
2022-08-19T14:24:26.022Z,101103.91
2022-08-19T14:27:49.297Z,101104.72
2022-08-19T14:31:13.960Z,101098.88
2022-08-19T14:34:38.525Z,101099.53
2022-08-19T14:38:01.014Z,101094.38
2022-08-19T14:41:25.354Z,101092.94
2022-08-19T14:44:47.669Z,101102.50
2022-08-19T14:48:19.013Z,101091.69
2022-08-19T14:51:41.426Z,101096.25
2022-08-19T14:55:07.616Z,101091.22
2022-08-19T14:58:30.494Z,101088.91
2022-08-19T15:01:52.756Z,101087.28
2022-08-19T15:05:17.582Z,101092.91
2022-08-19T15:08:42.173Z,101091.41
2022-08-19T15:12:05.693Z,101101.59
2022-08-19T15:15:28.914Z,101104.09
2022-08-19T15:18:53.421Z,101103.44
2022-08-19T15:22:19.263Z,101109.47
2022-08-19T15:25:42.595Z,101101.28
2022-08-19T15:29:05.934Z,101096.91
2022-08-19T15:32:28.942Z,101098.34
2022-08-19T15:35:52.372Z,101095.00
2022-08-19T15:39:16.212Z,101086.84
2022-08-19T15:42:42.497Z,101098.91
2022-08-19T15:46:04.597Z,101100.53
2022-08-19T15:49:26.889Z,101106.72
2022-08-19T15:52:51.058Z,101101.91
2022-08-19T15:56:16.136Z,101094.34
2022-08-19T16:00:00.104Z,101073.31
2022-08-19T16:03:42.417Z,101095.09
2022-08-19T16:07:04.791Z,101094.53
2022-08-19T16:10:28.155Z,101102.34
2022-08-19T16:13:54.090Z,101099.25
2022-08-19T16:17:16.962Z,101102.25
2022-08-19T16:20:38.987Z,101104.88
2022-08-19T16:24:03.311Z,101107.22
2022-08-19T16:27:25.446Z,101105.41
2022-08-19T16:30:51.198Z,101110.53
2022-08-19T16:34:14.674Z,101117.94
2022-08-19T16:37:36.505Z,101116.94
2022-08-19T16:41:00.663Z,101117.50
2022-08-19T16:44:22.888Z,101119.38
2022-08-19T16:47:46.607Z,101128.50
2022-08-19T16:51:08.834Z,101133.72
2022-08-19T16:54:32.575Z,101126.94
2022-08-19T16:57:54.542Z,101136.53
2022-08-19T17:01:16.510Z,101133.00
2022-08-19T17:04:39.788Z,101132.69
2022-08-19T17:08:01.795Z,101138.13
2022-08-19T17:11:26.527Z,101133.63
2022-08-19T17:14:48.311Z,101136.38
2022-08-19T17:18:11.668Z,101132.44
2022-08-19T17:21:36.784Z,101135.66
2022-08-19T17:24:59.209Z,101136.25
2022-08-19T17:28:27.211Z,101114.19
2022-08-19T17:31:49.590Z,101138.06
2022-08-19T17:35:11.836Z,101138.63
2022-08-19T17:38:37.299Z,101152.16
2022-08-19T17:42:02.573Z,101151.84
2022-08-19T17:45:24.532Z,101148.41
2022-08-19T17:48:52.126Z,101145.19
2022-08-19T17:52:14.773Z,101164.00
2022-08-19T17:55:38.537Z,101158.16
2022-08-19T17:59:01.770Z,101166.56
2022-08-19T18:02:24.370Z,101166.19
2022-08-19T18:05:46.599Z,101148.88
2022-08-19T18:09:09.134Z,101171.50
2022-08-19T18:12:32.433Z,101174.84
2022-08-19T18:15:54.391Z,101178.69
2022-08-19T18:19:16.344Z,101173.28
2022-08-19T18:22:40.614Z,101178.56
2022-08-19T18:26:02.977Z,101151.47
2022-08-19T18:29:26.556Z,101183.88
2022-08-19T18:32:52.621Z,101184.28
2022-08-19T18:36:14.467Z,101178.03
2022-08-19T18:39:54.148Z,101155.63
2022-08-19T18:43:33.781Z,101185.28
2022-08-19T18:47:14.483Z,101184.84
2022-08-19T18:50:38.215Z,101187.31
2022-08-19T18:54:01.437Z,101178.69
2022-08-19T18:57:25.020Z,101183.97
2022-08-19T19:00:47.992Z,101197.84
2022-08-19T19:04:11.799Z,101201.69
2022-08-19T19:07:33.507Z,101202.13
2022-08-19T19:10:55.986Z,101207.13
2022-08-19T19:14:45.801Z,101201.38
2022-08-19T19:18:04.994Z,101204.81
2022-08-19T19:21:31.912Z,101202.16
2022-08-19T19:24:56.599Z,101203.47
2022-08-19T19:28:20.885Z,101199.34
2022-08-19T19:31:44.281Z,101210.34
2022-08-19T19:35:07.755Z,101210.94
2022-08-19T19:38:31.408Z,101200.44
2022-08-19T19:41:53.297Z,101211.75
2022-08-19T19:45:15.521Z,101212.34
2022-08-19T19:48:38.395Z,101219.13
2022-08-19T19:52:00.653Z,101210.06
2022-08-19T19:55:26.590Z,101227.31
2022-08-19T19:58:50.577Z,101226.09
2022-08-19T20:02:12.615Z,101233.50
2022-08-19T20:05:38.389Z,101222.72
2022-08-19T20:09:10.679Z,101222.31
2022-08-19T20:12:34.237Z,101224.75
2022-08-19T20:15:56.869Z,101224.31
2022-08-19T20:19:22.028Z,101219.56
2022-08-19T20:22:46.028Z,101230.69
2022-08-19T20:26:12.147Z,101234.06
2022-08-19T20:29:49.970Z,101235.34
2022-08-19T20:33:14.774Z,101241.94
2022-08-19T20:36:37.525Z,101228.06
2022-08-19T20:39:59.469Z,101230.00
2022-08-19T20:43:21.220Z,101245.34
2022-08-19T20:46:55.261Z,101237.72
2022-08-19T20:50:18.968Z,101238.72
2022-08-19T20:53:41.552Z,101235.63
2022-08-19T20:57:03.844Z,101238.44
2022-08-19T21:00:25.869Z,101234.63
2022-08-19T21:03:49.548Z,101240.97
2022-08-19T21:07:11.665Z,101243.06
2022-08-19T21:13:55.929Z,101241.25
2022-08-19T21:17:17.792Z,101233.66
2022-08-19T21:20:42.317Z,101210.84
2022-08-19T21:24:04.589Z,101206.63
2022-08-19T21:27:26.800Z,101223.91
2022-08-19T21:30:48.974Z,101223.50
2022-08-19T21:34:10.942Z,101234.88
2022-08-19T21:37:35.027Z,101222.06
2022-08-19T21:40:57.631Z,101227.69
2022-08-19T21:44:19.481Z,101222.78
2022-08-19T21:47:41.389Z,101222.22
2022-08-19T21:51:03.337Z,101219.34
2022-08-19T21:54:26.869Z,101216.94
2022-08-19T21:58:00.548Z,101216.94
2022-08-19T22:01:22.553Z,101194.03
2022-08-19T22:04:44.473Z,101210.16
2022-08-19T22:08:06.345Z,101218.44
2022-08-19T22:11:29.948Z,101216.88
2022-08-19T22:14:52.986Z,101223.47
2022-08-19T22:18:19.188Z,101217.84
2022-08-19T22:21:41.442Z,101224.28
2022-08-19T22:25:07.264Z,101219.22
2022-08-19T22:28:30.923Z,101217.06
2022-08-19T22:31:54.457Z,101220.84
2022-08-19T22:35:22.847Z,101221.53
2022-08-19T22:38:44.725Z,101222.63
2022-08-19T22:42:07.103Z,101221.44
2022-08-19T22:45:31.723Z,101209.88
2022-08-19T22:49:00.577Z,101223.94
2022-08-19T22:52:23.620Z,101199.44
2022-08-19T22:55:45.635Z,101213.44
2022-08-19T22:59:08.727Z,101219.19
2022-08-19T23:02:34.707Z,101212.09
2022-08-19T23:05:57.321Z,101222.88
2022-08-19T23:09:19.269Z,101232.97
2022-08-19T23:12:48.195Z,101213.91
2022-08-19T23:16:10.494Z,101235.06
2022-08-19T23:19:34.612Z,101238.84
2022-08-19T23:22:57.492Z,101232.72
2022-08-19T23:26:19.630Z,101243.59
2022-08-19T23:29:59.123Z,101241.94
2022-08-19T23:33:24.883Z,101216.19
2022-08-19T23:36:48.547Z,101237.47
2022-08-19T23:40:11.684Z,101239.44
2022-08-19T23:43:34.078Z,101228.19
2022-08-19T23:46:55.765Z,101239.19
2022-08-19T23:50:18.884Z,101238.84
2022-08-19T23:53:43.137Z,101238.22
2022-08-19T23:57:13.779Z,101241.38
